sensor_id;sensor_type;location;lat;lon;timestamp;temperature;humidity
52275;DHT22;38228;50.940;4.024;2023-04-24T00:00:11;10.40;99.90
52275;DHT22;38228;50.940;4.024;2023-04-24T00:02:41;10.50;99.90
52275;DHT22;38228;50.940;4.024;2023-04-24T00:05:10;10.40;99.90
52275;DHT22;38228;50.940;4.024;2023-04-24T00:07:36;10.50;99.90
52275;DHT22;38228;50.940;4.024;2023-04-24T00:10:01;10.30;99.90
52275;DHT22;38228;50.940;4.024;2023-04-24T00:12:27;10.30;99.90
52275;DHT22;38228;50.940;4.024;2023-04-24T00:14:53;10.20;99.90
52275;DHT22;38228;50.940;4.024;2023-04-24T00:17:19;10.10;99.90
52275;DHT22;38228;50.940;4.024;2023-04-24T00:19:48;10.20;99.90
52275;DHT22;38228;50.940;4.024;2023-04-24T00:22:14;10.20;99.90
52275;DHT22;38228;50.940;4.024;2023-04-24T00:24:40;10.30;99.90
52275;DHT22;38228;50.940;4.024;2023-04-24T00:27:06;10.30;99.90
52275;DHT22;38228;50.940;4.024;2023-04-24T00:29:32;10.10;99.90
52275;DHT22;38228;50.940;4.024;2023-04-24T00:31:57;10.20;99.90
52275;DHT22;38228;50.940;4.024;2023-04-24T00:34:23;10.20;99.90
52275;DHT22;38228;50.940;4.024;2023-04-24T00:36:49;10.30;99.90
52275;DHT22;38228;50.940;4.024;2023-04-24T00:39:18;10.10;99.90
52275;DHT22;38228;50.940;4.024;2023-04-24T00:41:45;10.00;99.90
52275;DHT22;38228;50.940;4.024;2023-04-24T00:44:11;10.00;99.90
52275;DHT22;38228;50.940;4.024;2023-04-24T00:46:37;10.00;99.90
52275;DHT22;38228;50.940;4.024;2023-04-24T00:49:04;10.00;99.90
52275;DHT22;38228;50.940;4.024;2023-04-24T00:51:32;9.90;99.90
52275;DHT22;38228;50.940;4.024;2023-04-24T00:53:58;10.00;99.90
52275;DHT22;38228;50.940;4.024;2023-04-24T00:56:25;9.90;99.90
52275;DHT22;38228;50.940;4.024;2023-04-24T00:58:51;10.00;99.90
52275;DHT22;38228;50.940;4.024;2023-04-24T01:01:20;10.10;99.90
52275;DHT22;38228;50.940;4.024;2023-04-24T01:03:47;10.00;99.90
52275;DHT22;38228;50.940;4.024;2023-04-24T01:06:14;9.80;99.90
52275;DHT22;38228;50.940;4.024;2023-04-24T01:08:41;9.90;99.90
52275;DHT22;38228;50.940;4.024;2023-04-24T01:11:07;9.90;99.90
52275;DHT22;38228;50.940;4.024;2023-04-24T01:13:33;9.80;99.90
52275;DHT22;38228;50.940;4.024;2023-04-24T01:16:00;9.80;99.90
52275;DHT22;38228;50.940;4.024;2023-04-24T01:18:26;9.80;99.90
52275;DHT22;38228;50.940;4.024;2023-04-24T01:20:54;9.80;99.90
52275;DHT22;38228;50.940;4.024;2023-04-24T01:23:22;9.90;99.90
52275;DHT22;38228;50.940;4.024;2023-04-24T01:25:48;9.90;99.90
52275;DHT22;38228;50.940;4.024;2023-04-24T01:28:15;9.80;99.90
52275;DHT22;38228;50.940;4.024;2023-04-24T01:30:41;9.70;99.90
52275;DHT22;38228;50.940;4.024;2023-04-24T01:33:07;9.60;99.90
52275;DHT22;38228;50.940;4.024;2023-04-24T01:35:33;9.60;99.90
52275;DHT22;38228;50.940;4.024;2023-04-24T01:38:01;9.60;99.90
52275;DHT22;38228;50.940;4.024;2023-04-24T01:40:27;9.50;99.90
52275;DHT22;38228;50.940;4.024;2023-04-24T01:42:53;9.50;99.90
52275;DHT22;38228;50.940;4.024;2023-04-24T01:45:19;9.50;99.90
52275;DHT22;38228;50.940;4.024;2023-04-24T01:47:45;9.60;99.90
52275;DHT22;38228;50.940;4.024;2023-04-24T01:50:12;9.50;99.90
52275;DHT22;38228;50.940;4.024;2023-04-24T01:52:37;9.60;99.90
52275;DHT22;38228;50.940;4.024;2023-04-24T01:55:04;9.50;99.90
52275;DHT22;38228;50.940;4.024;2023-04-24T01:57:31;9.50;99.90
52275;DHT22;38228;50.940;4.024;2023-04-24T01:59:57;9.50;99.90
52275;DHT22;38228;50.940;4.024;2023-04-24T02:02:23;9.50;99.90
52275;DHT22;38228;50.940;4.024;2023-04-24T02:04:55;9.50;99.90
52275;DHT22;38228;50.940;4.024;2023-04-24T02:07:21;9.50;99.90
52275;DHT22;38228;50.940;4.024;2023-04-24T02:09:47;9.50;99.90
52275;DHT22;38228;50.940;4.024;2023-04-24T02:12:14;9.30;99.90
52275;DHT22;38228;50.940;4.024;2023-04-24T02:14:40;9.20;99.90
52275;DHT22;38228;50.940;4.024;2023-04-24T02:17:07;9.20;99.90
52275;DHT22;38228;50.940;4.024;2023-04-24T02:19:33;9.30;99.90
52275;DHT22;38228;50.940;4.024;2023-04-24T02:21:59;9.30;99.90
52275;DHT22;38228;50.940;4.024;2023-04-24T02:24:25;9.20;99.90
52275;DHT22;38228;50.940;4.024;2023-04-24T02:26:50;9.30;99.90
52275;DHT22;38228;50.940;4.024;2023-04-24T02:29:16;9.40;99.90
52275;DHT22;38228;50.940;4.024;2023-04-24T02:31:42;9.30;99.90
52275;DHT22;38228;50.940;4.024;2023-04-24T02:34:08;9.30;99.90
52275;DHT22;38228;50.940;4.024;2023-04-24T02:36:33;9.30;99.90
52275;DHT22;38228;50.940;4.024;2023-04-24T02:38:59;9.20;99.90
52275;DHT22;38228;50.940;4.024;2023-04-24T02:41:26;9.20;99.90
52275;DHT22;38228;50.940;4.024;2023-04-24T02:43:58;9.20;99.90
52275;DHT22;38228;50.940;4.024;2023-04-24T02:46:24;9.10;99.90
52275;DHT22;38228;50.940;4.024;2023-04-24T02:48:50;9.00;99.90
52275;DHT22;38228;50.940;4.024;2023-04-24T02:51:16;9.10;99.90
52275;DHT22;38228;50.940;4.024;2023-04-24T02:53:41;9.20;99.90
52275;DHT22;38228;50.940;4.024;2023-04-24T02:56:07;9.20;99.90
52275;DHT22;38228;50.940;4.024;2023-04-24T02:58:33;9.10;99.90
52275;DHT22;38228;50.940;4.024;2023-04-24T03:00:59;9.20;99.90
52275;DHT22;38228;50.940;4.024;2023-04-24T03:03:26;9.20;99.90
52275;DHT22;38228;50.940;4.024;2023-04-24T03:05:51;9.10;99.90
52275;DHT22;38228;50.940;4.024;2023-04-24T03:08:17;9.10;99.90
52275;DHT22;38228;50.940;4.024;2023-04-24T03:10:43;9.10;99.90
52275;DHT22;38228;50.940;4.024;2023-04-24T03:13:09;9.10;99.90
52275;DHT22;38228;50.940;4.024;2023-04-24T03:15:35;9.00;99.90
52275;DHT22;38228;50.940;4.024;2023-04-24T03:18:01;9.00;99.90
52275;DHT22;38228;50.940;4.024;2023-04-24T03:20:28;9.00;99.90
52275;DHT22;38228;50.940;4.024;2023-04-24T03:22:53;8.90;99.90
52275;DHT22;38228;50.940;4.024;2023-04-24T03:25:19;9.00;99.90
52275;DHT22;38228;50.940;4.024;2023-04-24T03:27:45;9.00;99.90
52275;DHT22;38228;50.940;4.024;2023-04-24T03:30:11;8.90;99.90
52275;DHT22;38228;50.940;4.024;2023-04-24T03:32:37;8.90;99.90
52275;DHT22;38228;50.940;4.024;2023-04-24T03:35:07;8.90;99.90
52275;DHT22;38228;50.940;4.024;2023-04-24T03:37:34;8.90;99.90
52275;DHT22;38228;50.940;4.024;2023-04-24T03:40:00;8.90;99.90
52275;DHT22;38228;50.940;4.024;2023-04-24T03:42:26;9.00;99.90
52275;DHT22;38228;50.940;4.024;2023-04-24T03:44:52;9.00;99.90
52275;DHT22;38228;50.940;4.024;2023-04-24T03:47:18;9.00;99.90
52275;DHT22;38228;50.940;4.024;2023-04-24T03:49:44;9.00;99.90
52275;DHT22;38228;50.940;4.024;2023-04-24T03:52:10;9.00;99.90
52275;DHT22;38228;50.940;4.024;2023-04-24T03:54:35;9.00;99.90
52275;DHT22;38228;50.940;4.024;2023-04-24T03:57:01;8.90;99.90
52275;DHT22;38228;50.940;4.024;2023-04-24T03:59:27;8.90;99.90
52275;DHT22;38228;50.940;4.024;2023-04-24T04:01:53;8.80;99.90
52275;DHT22;38228;50.940;4.024;2023-04-24T04:04:19;8.90;99.90
52275;DHT22;38228;50.940;4.024;2023-04-24T04:06:44;8.80;99.90
52275;DHT22;38228;50.940;4.024;2023-04-24T04:09:11;8.70;99.90
52275;DHT22;38228;50.940;4.024;2023-04-24T04:11:37;8.80;99.90
52275;DHT22;38228;50.940;4.024;2023-04-24T04:14:03;8.70;99.90
52275;DHT22;38228;50.940;4.024;2023-04-24T04:16:29;8.70;99.90
52275;DHT22;38228;50.940;4.024;2023-04-24T04:18:55;8.60;99.90
52275;DHT22;38228;50.940;4.024;2023-04-24T04:21:21;8.60;99.90
52275;DHT22;38228;50.940;4.024;2023-04-24T04:23:47;8.60;99.90
52275;DHT22;38228;50.940;4.024;2023-04-24T04:26:13;8.60;99.90
52275;DHT22;38228;50.940;4.024;2023-04-24T04:28:39;8.40;99.90
52275;DHT22;38228;50.940;4.024;2023-04-24T04:31:05;8.40;99.90
52275;DHT22;38228;50.940;4.024;2023-04-24T04:33:33;8.40;99.90
52275;DHT22;38228;50.940;4.024;2023-04-24T04:35:59;8.40;99.90
52275;DHT22;38228;50.940;4.024;2023-04-24T04:38:25;8.50;99.90
52275;DHT22;38228;50.940;4.024;2023-04-24T04:40:55;8.50;99.90
52275;DHT22;38228;50.940;4.024;2023-04-24T04:43:24;8.50;99.90
52275;DHT22;38228;50.940;4.024;2023-04-24T04:45:50;8.50;99.90
52275;DHT22;38228;50.940;4.024;2023-04-24T04:48:17;8.40;99.90
52275;DHT22;38228;50.940;4.024;2023-04-24T04:50:44;8.40;99.90
52275;DHT22;38228;50.940;4.024;2023-04-24T04:53:10;8.40;99.90
52275;DHT22;38228;50.940;4.024;2023-04-24T04:55:37;8.40;99.90
52275;DHT22;38228;50.940;4.024;2023-04-24T04:58:03;8.40;99.90
52275;DHT22;38228;50.940;4.024;2023-04-24T05:00:29;8.40;99.90
52275;DHT22;38228;50.940;4.024;2023-04-24T05:03:01;8.50;99.90
52275;DHT22;38228;50.940;4.024;2023-04-24T05:05:27;8.30;99.90
52275;DHT22;38228;50.940;4.024;2023-04-24T05:07:53;8.40;99.90
52275;DHT22;38228;50.940;4.024;2023-04-24T05:10:19;8.30;99.90
52275;DHT22;38228;50.940;4.024;2023-04-24T05:12:45;8.40;99.90
52275;DHT22;38228;50.940;4.024;2023-04-24T05:15:11;8.40;99.90
52275;DHT22;38228;50.940;4.024;2023-04-24T05:17:36;8.40;99.90
52275;DHT22;38228;50.940;4.024;2023-04-24T05:20:03;8.50;99.90
52275;DHT22;38228;50.940;4.024;2023-04-24T05:22:32;8.50;99.90
52275;DHT22;38228;50.940;4.024;2023-04-24T05:24:58;8.50;99.90
52275;DHT22;38228;50.940;4.024;2023-04-24T05:27:24;8.40;99.90
52275;DHT22;38228;50.940;4.024;2023-04-24T05:29:50;8.40;99.90
52275;DHT22;38228;50.940;4.024;2023-04-24T05:32:16;8.40;99.90
52275;DHT22;38228;50.940;4.024;2023-04-24T05:34:45;8.50;99.90
52275;DHT22;38228;50.940;4.024;2023-04-24T05:37:11;8.50;99.90
52275;DHT22;38228;50.940;4.024;2023-04-24T05:39:37;8.50;99.90
52275;DHT22;38228;50.940;4.024;2023-04-24T05:42:03;8.50;99.90
52275;DHT22;38228;50.940;4.024;2023-04-24T05:44:30;8.50;99.90
52275;DHT22;38228;50.940;4.024;2023-04-24T05:46:56;8.40;99.90
52275;DHT22;38228;50.940;4.024;2023-04-24T05:49:22;8.40;99.90
52275;DHT22;38228;50.940;4.024;2023-04-24T05:51:48;8.40;99.90
52275;DHT22;38228;50.940;4.024;2023-04-24T05:54:14;8.50;99.90
52275;DHT22;38228;50.940;4.024;2023-04-24T05:56:40;8.50;99.90
52275;DHT22;38228;50.940;4.024;2023-04-24T05:59:07;8.50;99.90
52275;DHT22;38228;50.940;4.024;2023-04-24T06:01:33;8.40;99.90
52275;DHT22;38228;50.940;4.024;2023-04-24T06:03:59;8.40;99.90
52275;DHT22;38228;50.940;4.024;2023-04-24T06:06:26;8.50;99.90
52275;DHT22;38228;50.940;4.024;2023-04-24T06:08:52;8.50;99.90
52275;DHT22;38228;50.940;4.024;2023-04-24T06:11:18;8.50;99.90
52275;DHT22;38228;50.940;4.024;2023-04-24T06:13:44;8.50;99.90
52275;DHT22;38228;50.940;4.024;2023-04-24T06:16:11;8.60;99.90
52275;DHT22;38228;50.940;4.024;2023-04-24T06:18:36;8.50;99.90
52275;DHT22;38228;50.940;4.024;2023-04-24T06:21:03;8.50;99.90
52275;DHT22;38228;50.940;4.024;2023-04-24T06:23:29;8.60;99.90
52275;DHT22;38228;50.940;4.024;2023-04-24T06:25:58;8.60;99.90
52275;DHT22;38228;50.940;4.024;2023-04-24T06:28:23;8.70;99.90
52275;DHT22;38228;50.940;4.024;2023-04-24T06:30:49;8.70;99.90
52275;DHT22;38228;50.940;4.024;2023-04-24T06:33:16;8.80;99.90
52275;DHT22;38228;50.940;4.024;2023-04-24T06:35:42;8.70;99.90
52275;DHT22;38228;50.940;4.024;2023-04-24T06:38:08;8.70;99.90
52275;DHT22;38228;50.940;4.024;2023-04-24T06:40:34;8.70;99.90
52275;DHT22;38228;50.940;4.024;2023-04-24T06:43:00;8.90;99.90
52275;DHT22;38228;50.940;4.024;2023-04-24T06:45:28;8.90;99.90
52275;DHT22;38228;50.940;4.024;2023-04-24T06:47:54;8.80;99.90
52275;DHT22;38228;50.940;4.024;2023-04-24T06:50:20;8.80;99.90
52275;DHT22;38228;50.940;4.024;2023-04-24T06:52:46;8.90;99.90
52275;DHT22;38228;50.940;4.024;2023-04-24T06:55:11;9.00;99.90
52275;DHT22;38228;50.940;4.024;2023-04-24T06:57:37;9.00;99.90
52275;DHT22;38228;50.940;4.024;2023-04-24T07:00:04;9.00;99.90
52275;DHT22;38228;50.940;4.024;2023-04-24T07:02:30;9.00;99.90
52275;DHT22;38228;50.940;4.024;2023-04-24T07:04:56;9.10;99.90
52275;DHT22;38228;50.940;4.024;2023-04-24T07:07:22;9.00;99.90
52275;DHT22;38228;50.940;4.024;2023-04-24T07:09:49;9.00;99.90
52275;DHT22;38228;50.940;4.024;2023-04-24T07:12:16;8.80;99.90
52275;DHT22;38228;50.940;4.024;2023-04-24T07:14:42;8.90;99.90
52275;DHT22;38228;50.940;4.024;2023-04-24T07:17:08;8.80;99.90
52275;DHT22;38228;50.940;4.024;2023-04-24T07:19:35;8.80;99.90
52275;DHT22;38228;50.940;4.024;2023-04-24T07:22:01;8.80;99.90
52275;DHT22;38228;50.940;4.024;2023-04-24T07:24:28;8.80;99.90
52275;DHT22;38228;50.940;4.024;2023-04-24T07:26:54;8.90;99.90
52275;DHT22;38228;50.940;4.024;2023-04-24T07:29:19;9.00;99.90
52275;DHT22;38228;50.940;4.024;2023-04-24T07:31:46;9.10;99.90
52275;DHT22;38228;50.940;4.024;2023-04-24T07:34:12;9.30;99.90
52275;DHT22;38228;50.940;4.024;2023-04-24T07:36:38;9.40;99.90
52275;DHT22;38228;50.940;4.024;2023-04-24T07:39:04;9.40;99.90
52275;DHT22;38228;50.940;4.024;2023-04-24T07:41:31;9.40;99.90
52275;DHT22;38228;50.940;4.024;2023-04-24T07:43:58;9.30;99.90
52275;DHT22;38228;50.940;4.024;2023-04-24T07:46:27;9.20;99.90
52275;DHT22;38228;50.940;4.024;2023-04-24T07:48:55;9.10;99.90
52275;DHT22;38228;50.940;4.024;2023-04-24T07:51:21;9.00;99.90
52275;DHT22;38228;50.940;4.024;2023-04-24T07:53:47;9.10;99.90
52275;DHT22;38228;50.940;4.024;2023-04-24T07:56:13;9.20;99.90
52275;DHT22;38228;50.940;4.024;2023-04-24T07:58:38;9.40;99.90
52275;DHT22;38228;50.940;4.024;2023-04-24T08:01:04;9.50;99.90
52275;DHT22;38228;50.940;4.024;2023-04-24T08:03:30;9.50;99.90
52275;DHT22;38228;50.940;4.024;2023-04-24T08:05:57;9.50;99.90
52275;DHT22;38228;50.940;4.024;2023-04-24T08:08:23;9.40;99.90
52275;DHT22;38228;50.940;4.024;2023-04-24T08:10:50;9.50;99.90
52275;DHT22;38228;50.940;4.024;2023-04-24T08:13:16;9.60;99.90
52275;DHT22;38228;50.940;4.024;2023-04-24T08:15:42;9.50;99.90
52275;DHT22;38228;50.940;4.024;2023-04-24T08:18:08;9.50;99.90
52275;DHT22;38228;50.940;4.024;2023-04-24T08:20:33;9.60;99.90
52275;DHT22;38228;50.940;4.024;2023-04-24T08:22:59;9.70;99.90
52275;DHT22;38228;50.940;4.024;2023-04-24T08:25:25;9.90;99.90
52275;DHT22;38228;50.940;4.024;2023-04-24T08:27:51;10.00;99.90
52275;DHT22;38228;50.940;4.024;2023-04-24T08:30:18;10.00;99.90
52275;DHT22;38228;50.940;4.024;2023-04-24T08:32:44;10.00;99.90
52275;DHT22;38228;50.940;4.024;2023-04-24T08:35:09;10.10;99.90
52275;DHT22;38228;50.940;4.024;2023-04-24T08:37:35;10.40;99.90
52275;DHT22;38228;50.940;4.024;2023-04-24T08:40:06;10.60;99.90
52275;DHT22;38228;50.940;4.024;2023-04-24T08:42:35;10.70;99.90
52275;DHT22;38228;50.940;4.024;2023-04-24T08:45:02;10.70;99.90
52275;DHT22;38228;50.940;4.024;2023-04-24T08:47:29;10.60;99.90
52275;DHT22;38228;50.940;4.024;2023-04-24T08:49:56;10.40;99.90
52275;DHT22;38228;50.940;4.024;2023-04-24T08:52:22;10.50;99.90
52275;DHT22;38228;50.940;4.024;2023-04-24T08:54:48;10.60;99.90
52275;DHT22;38228;50.940;4.024;2023-04-24T08:57:15;10.80;99.90
52275;DHT22;38228;50.940;4.024;2023-04-24T08:59:42;10.90;99.90
52275;DHT22;38228;50.940;4.024;2023-04-24T09:02:10;10.80;99.90
52275;DHT22;38228;50.940;4.024;2023-04-24T09:04:37;10.50;99.90
52275;DHT22;38228;50.940;4.024;2023-04-24T09:07:06;10.40;99.90
52275;DHT22;38228;50.940;4.024;2023-04-24T09:09:33;10.30;99.90
52275;DHT22;38228;50.940;4.024;2023-04-24T09:12:00;10.50;99.90
52275;DHT22;38228;50.940;4.024;2023-04-24T09:14:27;10.70;99.90
52275;DHT22;38228;50.940;4.024;2023-04-24T09:16:53;10.90;99.90
52275;DHT22;38228;50.940;4.024;2023-04-24T09:19:19;11.00;99.90
52275;DHT22;38228;50.940;4.024;2023-04-24T09:21:47;11.00;99.90
52275;DHT22;38228;50.940;4.024;2023-04-24T09:24:21;11.10;99.90
52275;DHT22;38228;50.940;4.024;2023-04-24T09:26:57;11.30;99.90
52275;DHT22;38228;50.940;4.024;2023-04-24T09:29:33;11.30;99.90
52275;DHT22;38228;50.940;4.024;2023-04-24T09:31:59;11.30;99.90
52275;DHT22;38228;50.940;4.024;2023-04-24T09:34:43;11.50;99.90
52275;DHT22;38228;50.940;4.024;2023-04-24T09:37:09;11.60;99.90
52275;DHT22;38228;50.940;4.024;2023-04-24T09:39:35;11.60;99.90
52275;DHT22;38228;50.940;4.024;2023-04-24T09:42:01;11.60;99.90
52275;DHT22;38228;50.940;4.024;2023-04-24T09:44:28;11.50;99.90
52275;DHT22;38228;50.940;4.024;2023-04-24T09:46:56;11.10;99.90
52275;DHT22;38228;50.940;4.024;2023-04-24T09:49:25;11.00;99.90
52275;DHT22;38228;50.940;4.024;2023-04-24T09:51:51;11.10;99.90
52275;DHT22;38228;50.940;4.024;2023-04-24T09:54:19;11.20;99.90
52275;DHT22;38228;50.940;4.024;2023-04-24T09:56:49;11.10;99.90
52275;DHT22;38228;50.940;4.024;2023-04-24T09:59:18;11.40;99.90
52275;DHT22;38228;50.940;4.024;2023-04-24T10:01:44;11.70;99.90
52275;DHT22;38228;50.940;4.024;2023-04-24T10:04:26;12.00;99.90
52275;DHT22;38228;50.940;4.024;2023-04-24T10:06:56;12.40;99.90
52275;DHT22;38228;50.940;4.024;2023-04-24T10:09:24;12.50;99.90
52275;DHT22;38228;50.940;4.024;2023-04-24T10:11:51;12.40;99.90
52275;DHT22;38228;50.940;4.024;2023-04-24T10:14:21;12.20;99.90
52275;DHT22;38228;50.940;4.024;2023-04-24T10:16:48;12.10;99.90
52275;DHT22;38228;50.940;4.024;2023-04-24T10:19:15;12.00;99.90
52275;DHT22;38228;50.940;4.024;2023-04-24T10:21:42;12.00;99.90
52275;DHT22;38228;50.940;4.024;2023-04-24T10:24:21;11.80;99.90
52275;DHT22;38228;50.940;4.024;2023-04-24T10:26:47;11.60;99.90
52275;DHT22;38228;50.940;4.024;2023-04-24T10:29:16;11.50;99.90
52275;DHT22;38228;50.940;4.024;2023-04-24T10:31:42;11.50;99.90
52275;DHT22;38228;50.940;4.024;2023-04-24T10:34:11;11.60;99.90
52275;DHT22;38228;50.940;4.024;2023-04-24T10:36:43;11.50;99.90
52275;DHT22;38228;50.940;4.024;2023-04-24T10:39:12;11.50;99.90
52275;DHT22;38228;50.940;4.024;2023-04-24T10:41:39;11.50;99.90
52275;DHT22;38228;50.940;4.024;2023-04-24T10:44:13;11.50;99.90
52275;DHT22;38228;50.940;4.024;2023-04-24T10:46:42;11.60;99.90
52275;DHT22;38228;50.940;4.024;2023-04-24T10:49:08;11.60;99.90
52275;DHT22;38228;50.940;4.024;2023-04-24T10:54:33;11.40;99.90
52275;DHT22;38228;50.940;4.024;2023-04-24T10:59:45;11.50;99.90
52275;DHT22;38228;50.940;4.024;2023-04-24T11:02:11;11.40;99.90
52275;DHT22;38228;50.940;4.024;2023-04-24T11:04:40;11.50;99.90
52275;DHT22;38228;50.940;4.024;2023-04-24T11:07:09;11.70;99.90
52275;DHT22;38228;50.940;4.024;2023-04-24T11:09:35;11.70;99.90
52275;DHT22;38228;50.940;4.024;2023-04-24T11:12:09;11.50;99.90
52275;DHT22;38228;50.940;4.024;2023-04-24T11:17:38;11.60;99.90
52275;DHT22;38228;50.940;4.024;2023-04-24T11:20:11;11.70;99.90
52275;DHT22;38228;50.940;4.024;2023-04-24T11:22:40;12.20;99.90
52275;DHT22;38228;50.940;4.024;2023-04-24T11:25:07;12.30;99.90
52275;DHT22;38228;50.940;4.024;2023-04-24T11:27:42;12.30;99.90
52275;DHT22;38228;50.940;4.024;2023-04-24T11:30:09;12.10;99.90
52275;DHT22;38228;50.940;4.024;2023-04-24T11:32:42;12.10;99.90
52275;DHT22;38228;50.940;4.024;2023-04-24T11:35:15;12.10;99.90
52275;DHT22;38228;50.940;4.024;2023-04-24T11:37:44;12.30;99.90
52275;DHT22;38228;50.940;4.024;2023-04-24T11:40:17;12.40;99.90
52275;DHT22;38228;50.940;4.024;2023-04-24T11:42:51;12.40;99.90
52275;DHT22;38228;50.940;4.024;2023-04-24T11:45:18;12.30;99.90
52275;DHT22;38228;50.940;4.024;2023-04-24T11:47:45;12.10;99.90
52275;DHT22;38228;50.940;4.024;2023-04-24T11:50:13;11.90;99.90
52275;DHT22;38228;50.940;4.024;2023-04-24T11:52:45;12.00;99.90
52275;DHT22;38228;50.940;4.024;2023-04-24T11:57:46;12.50;99.90
52275;DHT22;38228;50.940;4.024;2023-04-24T12:00:23;12.60;99.90
52275;DHT22;38228;50.940;4.024;2023-04-24T12:02:49;12.50;99.90
52275;DHT22;38228;50.940;4.024;2023-04-24T12:05:22;12.60;99.90
52275;DHT22;38228;50.940;4.024;2023-04-24T12:07:48;12.60;99.90
52275;DHT22;38228;50.940;4.024;2023-04-24T12:10:26;12.90;99.90
52275;DHT22;38228;50.940;4.024;2023-04-24T12:12:53;12.80;99.90
52275;DHT22;38228;50.940;4.024;2023-04-24T12:15:21;12.50;99.90
52275;DHT22;38228;50.940;4.024;2023-04-24T12:17:47;12.40;99.90
52275;DHT22;38228;50.940;4.024;2023-04-24T12:20:14;12.30;99.90
52275;DHT22;38228;50.940;4.024;2023-04-24T12:25:11;12.50;99.90
52275;DHT22;38228;50.940;4.024;2023-04-24T12:27:37;12.50;99.90
52275;DHT22;38228;50.940;4.024;2023-04-24T12:30:05;12.60;99.90
52275;DHT22;38228;50.940;4.024;2023-04-24T12:32:31;12.40;99.90
52275;DHT22;38228;50.940;4.024;2023-04-24T12:34:57;12.40;99.90
52275;DHT22;38228;50.940;4.024;2023-04-24T12:37:25;12.70;99.90
52275;DHT22;38228;50.940;4.024;2023-04-24T12:40:07;13.00;99.90
52275;DHT22;38228;50.940;4.024;2023-04-24T12:42:34;13.00;99.90
52275;DHT22;38228;50.940;4.024;2023-04-24T12:45:05;12.80;99.90
52275;DHT22;38228;50.940;4.024;2023-04-24T12:47:32;12.60;99.90
52275;DHT22;38228;50.940;4.024;2023-04-24T12:50:01;12.40;99.90
52275;DHT22;38228;50.940;4.024;2023-04-24T12:52:29;12.30;99.90
52275;DHT22;38228;50.940;4.024;2023-04-24T12:54:57;12.20;99.90
52275;DHT22;38228;50.940;4.024;2023-04-24T12:57:27;12.40;99.90
52275;DHT22;38228;50.940;4.024;2023-04-24T12:59:54;12.40;99.90
52275;DHT22;38228;50.940;4.024;2023-04-24T13:02:25;12.60;99.90
52275;DHT22;38228;50.940;4.024;2023-04-24T13:04:52;12.60;99.90
52275;DHT22;38228;50.940;4.024;2023-04-24T13:07:18;12.70;99.90
52275;DHT22;38228;50.940;4.024;2023-04-24T13:09:44;12.90;99.90
52275;DHT22;38228;50.940;4.024;2023-04-24T13:12:11;13.20;99.90
52275;DHT22;38228;50.940;4.024;2023-04-24T13:14:38;13.50;99.90
52275;DHT22;38228;50.940;4.024;2023-04-24T13:17:04;13.70;99.90
52275;DHT22;38228;50.940;4.024;2023-04-24T13:19:44;13.70;99.90
52275;DHT22;38228;50.940;4.024;2023-04-24T13:22:12;13.40;99.90
52275;DHT22;38228;50.940;4.024;2023-04-24T13:24:38;13.40;99.90
52275;DHT22;38228;50.940;4.024;2023-04-24T13:27:08;13.50;99.90
52275;DHT22;38228;50.940;4.024;2023-04-24T13:29:34;13.50;99.90
52275;DHT22;38228;50.940;4.024;2023-04-24T13:32:00;13.70;99.90
52275;DHT22;38228;50.940;4.024;2023-04-24T13:34:26;13.80;99.90
52275;DHT22;38228;50.940;4.024;2023-04-24T13:36:54;14.10;99.90
52275;DHT22;38228;50.940;4.024;2023-04-24T13:39:21;14.40;99.90
52275;DHT22;38228;50.940;4.024;2023-04-24T13:41:47;14.40;99.90
52275;DHT22;38228;50.940;4.024;2023-04-24T13:44:17;14.30;99.90
52275;DHT22;38228;50.940;4.024;2023-04-24T13:46:45;14.10;99.90
52275;DHT22;38228;50.940;4.024;2023-04-24T13:49:12;14.00;99.90
52275;DHT22;38228;50.940;4.024;2023-04-24T13:51:39;14.00;99.90
52275;DHT22;38228;50.940;4.024;2023-04-24T13:54:05;13.80;99.90
52275;DHT22;38228;50.940;4.024;2023-04-24T13:56:32;13.60;99.90
52275;DHT22;38228;50.940;4.024;2023-04-24T13:58:58;13.80;99.90
52275;DHT22;38228;50.940;4.024;2023-04-24T14:01:24;14.10;99.90
52275;DHT22;38228;50.940;4.024;2023-04-24T14:03:54;14.40;99.90
52275;DHT22;38228;50.940;4.024;2023-04-24T14:06:22;15.00;99.90
52275;DHT22;38228;50.940;4.024;2023-04-24T14:08:49;15.20;99.90
52275;DHT22;38228;50.940;4.024;2023-04-24T14:11:16;14.90;99.90
52275;DHT22;38228;50.940;4.024;2023-04-24T14:13:42;14.60;99.90
52275;DHT22;38228;50.940;4.024;2023-04-24T14:16:09;14.30;99.90
52275;DHT22;38228;50.940;4.024;2023-04-24T14:18:35;14.10;99.90
52275;DHT22;38228;50.940;4.024;2023-04-24T14:21:02;14.20;99.90
52275;DHT22;38228;50.940;4.024;2023-04-24T14:23:28;14.00;99.90
52275;DHT22;38228;50.940;4.024;2023-04-24T14:25:54;13.90;99.90
52275;DHT22;38228;50.940;4.024;2023-04-24T14:28:20;13.80;99.90
52275;DHT22;38228;50.940;4.024;2023-04-24T14:30:47;13.90;99.90
52275;DHT22;38228;50.940;4.024;2023-04-24T14:33:13;13.70;99.90
52275;DHT22;38228;50.940;4.024;2023-04-24T14:35:40;13.50;99.90
52275;DHT22;38228;50.940;4.024;2023-04-24T14:38:07;13.50;99.90
52275;DHT22;38228;50.940;4.024;2023-04-24T14:40:34;13.50;99.90
52275;DHT22;38228;50.940;4.024;2023-04-24T14:43:00;13.60;99.90
52275;DHT22;38228;50.940;4.024;2023-04-24T14:45:27;13.50;99.90
52275;DHT22;38228;50.940;4.024;2023-04-24T14:47:53;13.50;99.90
52275;DHT22;38228;50.940;4.024;2023-04-24T14:50:19;13.30;99.90
52275;DHT22;38228;50.940;4.024;2023-04-24T14:52:45;13.30;99.90
52275;DHT22;38228;50.940;4.024;2023-04-24T14:55:12;13.10;99.90
52275;DHT22;38228;50.940;4.024;2023-04-24T14:57:38;13.00;99.90
52275;DHT22;38228;50.940;4.024;2023-04-24T15:00:05;13.00;99.90
52275;DHT22;38228;50.940;4.024;2023-04-24T15:02:36;13.00;99.90
52275;DHT22;38228;50.940;4.024;2023-04-24T15:05:06;13.00;99.90
52275;DHT22;38228;50.940;4.024;2023-04-24T15:07:33;12.90;99.90
52275;DHT22;38228;50.940;4.024;2023-04-24T15:10:01;12.80;99.90
52275;DHT22;38228;50.940;4.024;2023-04-24T15:12:27;12.80;99.90
52275;DHT22;38228;50.940;4.024;2023-04-24T15:14:54;12.80;99.90
52275;DHT22;38228;50.940;4.024;2023-04-24T15:17:20;12.80;99.90
52275;DHT22;38228;50.940;4.024;2023-04-24T15:19:46;12.80;99.90
52275;DHT22;38228;50.940;4.024;2023-04-24T15:22:13;12.80;99.90
52275;DHT22;38228;50.940;4.024;2023-04-24T15:24:39;12.70;99.90
52275;DHT22;38228;50.940;4.024;2023-04-24T15:27:09;12.70;99.90
52275;DHT22;38228;50.940;4.024;2023-04-24T15:29:35;12.90;99.90
52275;DHT22;38228;50.940;4.024;2023-04-24T15:32:01;12.80;99.90
52275;DHT22;38228;50.940;4.024;2023-04-24T15:34:28;12.90;99.90
52275;DHT22;38228;50.940;4.024;2023-04-24T15:36:54;12.90;99.90
52275;DHT22;38228;50.940;4.024;2023-04-24T15:39:24;12.90;99.90
52275;DHT22;38228;50.940;4.024;2023-04-24T15:41:50;12.80;99.90
52275;DHT22;38228;50.940;4.024;2023-04-24T15:44:17;12.70;99.90
52275;DHT22;38228;50.940;4.024;2023-04-24T15:46:44;12.60;99.90
52275;DHT22;38228;50.940;4.024;2023-04-24T15:49:10;12.40;99.90